Rugby, United Kingdom
Current Conditions -  °F | °C
As of 1:20 PM on Thursday 23 Oct 2014 (Local Time) from EGBE Reporting Station
Scattered Clouds Scattered Clouds  
Wind Chill: 59°   Ceiling: Unl
Heat Index: 59°   Visibility: 6mi
Dew Point: 55°   Wind: 15mph
Humidity: 88%   Direction: 220°SW
Pressure: 30.03"   Gusts: 29mph
Location:  52.39°N, 1.32°W
Report Text: EGBE 231220Z 22013G25KT 9999 SCT014 15/13 Q1017
Loading
Personal Weather Stations






























Interactive Weather Map
Tropical Storm Tracking
New forecast layout! Learn more

10-Day Weather Forecast

Advertisements
Track Severe Weather on mobile